sensor_id;sensor_type;location;lat;lon;timestamp;P1;durP1;ratioP1;P2;durP2;ratioP2
18822;SDS011;9540;51.550;7.980;2023-02-20T00:00:46;105.60;;;37.63;;
18822;SDS011;9540;51.550;7.980;2023-02-20T00:03:15;95.30;;;34.50;;
18822;SDS011;9540;51.550;7.980;2023-02-20T00:05:42;84.43;;;29.03;;
18822;SDS011;9540;51.550;7.980;2023-02-20T00:08:09;68.90;;;26.37;;
18822;SDS011;9540;51.550;7.980;2023-02-20T00:10:36;67.63;;;24.20;;
18822;SDS011;9540;51.550;7.980;2023-02-20T00:13:03;57.73;;;20.73;;
18822;SDS011;9540;51.550;7.980;2023-02-20T00:15:31;53.10;;;20.77;;
18822;SDS011;9540;51.550;7.980;2023-02-20T00:17:58;42.43;;;17.60;;
18822;SDS011;9540;51.550;7.980;2023-02-20T00:20:26;42.67;;;18.50;;
18822;SDS011;9540;51.550;7.980;2023-02-20T00:22:54;39.23;;;16.00;;
18822;SDS011;9540;51.550;7.980;2023-02-20T00:25:21;35.60;;;15.60;;
18822;SDS011;9540;51.550;7.980;2023-02-20T00:27:48;32.23;;;14.80;;
18822;SDS011;9540;51.550;7.980;2023-02-20T00:30:16;32.00;;;15.17;;
18822;SDS011;9540;51.550;7.980;2023-02-20T00:32:45;33.27;;;14.03;;
18822;SDS011;9540;51.550;7.980;2023-02-20T00:35:14;32.27;;;14.73;;
18822;SDS011;9540;51.550;7.980;2023-02-20T00:37:43;30.87;;;14.80;;
18822;SDS011;9540;51.550;7.980;2023-02-20T00:40:12;35.60;;;14.60;;
18822;SDS011;9540;51.550;7.980;2023-02-20T00:42:39;33.97;;;14.53;;
18822;SDS011;9540;51.550;7.980;2023-02-20T00:45:06;32.43;;;14.30;;
18822;SDS011;9540;51.550;7.980;2023-02-20T00:47:34;33.83;;;14.50;;
18822;SDS011;9540;51.550;7.980;2023-02-20T00:50:01;27.60;;;13.07;;
18822;SDS011;9540;51.550;7.980;2023-02-20T00:52:28;26.13;;;12.77;;
18822;SDS011;9540;51.550;7.980;2023-02-20T00:54:57;32.73;;;12.97;;
18822;SDS011;9540;51.550;7.980;2023-02-20T00:57:24;23.93;;;11.77;;
18822;SDS011;9540;51.550;7.980;2023-02-20T00:59:51;27.70;;;12.07;;
18822;SDS011;9540;51.550;7.980;2023-02-20T01:02:18;26.40;;;11.87;;
18822;SDS011;9540;51.550;7.980;2023-02-20T01:04:45;24.17;;;11.90;;
18822;SDS011;9540;51.550;7.980;2023-02-20T01:07:12;20.50;;;12.10;;
18822;SDS011;9540;51.550;7.980;2023-02-20T01:09:39;21.53;;;11.67;;
18822;SDS011;9540;51.550;7.980;2023-02-20T01:12:07;21.90;;;11.00;;
18822;SDS011;9540;51.550;7.980;2023-02-20T01:14:35;22.17;;;11.37;;
18822;SDS011;9540;51.550;7.980;2023-02-20T01:17:02;18.40;;;10.40;;
18822;SDS011;9540;51.550;7.980;2023-02-20T01:19:29;20.23;;;10.20;;
18822;SDS011;9540;51.550;7.980;2023-02-20T01:21:56;23.53;;;10.83;;
18822;SDS011;9540;51.550;7.980;2023-02-20T01:24:23;26.73;;;11.43;;
18822;SDS011;9540;51.550;7.980;2023-02-20T01:26:49;22.20;;;11.00;;
18822;SDS011;9540;51.550;7.980;2023-02-20T01:29:18;27.13;;;11.70;;
18822;SDS011;9540;51.550;7.980;2023-02-20T01:31:45;26.70;;;11.77;;
18822;SDS011;9540;51.550;7.980;2023-02-20T01:34:13;40.37;;;14.00;;
18822;SDS011;9540;51.550;7.980;2023-02-20T01:36:44;33.03;;;14.53;;
18822;SDS011;9540;51.550;7.980;2023-02-20T01:39:12;44.63;;;13.87;;
18822;SDS011;9540;51.550;7.980;2023-02-20T01:41:41;35.83;;;14.00;;
18822;SDS011;9540;51.550;7.980;2023-02-20T01:44:10;39.40;;;14.80;;
18822;SDS011;9540;51.550;7.980;2023-02-20T01:46:46;45.20;;;16.07;;
18822;SDS011;9540;51.550;7.980;2023-02-20T01:49:16;54.77;;;18.50;;
18822;SDS011;9540;51.550;7.980;2023-02-20T01:51:49;56.13;;;20.07;;
18822;SDS011;9540;51.550;7.980;2023-02-20T01:54:19;57.13;;;18.63;;
18822;SDS011;9540;51.550;7.980;2023-02-20T01:56:48;56.20;;;19.73;;
18822;SDS011;9540;51.550;7.980;2023-02-20T01:59:18;56.90;;;20.60;;
18822;SDS011;9540;51.550;7.980;2023-02-20T02:01:47;48.97;;;18.23;;
18822;SDS011;9540;51.550;7.980;2023-02-20T02:04:14;55.53;;;20.87;;
18822;SDS011;9540;51.550;7.980;2023-02-20T02:06:43;50.90;;;19.40;;
18822;SDS011;9540;51.550;7.980;2023-02-20T02:09:17;42.40;;;17.83;;
18822;SDS011;9540;51.550;7.980;2023-02-20T02:11:51;42.93;;;18.40;;
18822;SDS011;9540;51.550;7.980;2023-02-20T02:14:20;38.17;;;17.37;;
18822;SDS011;9540;51.550;7.980;2023-02-20T02:16:51;35.53;;;17.43;;
18822;SDS011;9540;51.550;7.980;2023-02-20T02:19:38;33.73;;;16.93;;
18822;SDS011;9540;51.550;7.980;2023-02-20T02:22:36;30.47;;;15.73;;
18822;SDS011;9540;51.550;7.980;2023-02-20T02:25:37;37.90;;;16.13;;
18822;SDS011;9540;51.550;7.980;2023-02-20T02:28:19;30.40;;;15.57;;
18822;SDS011;9540;51.550;7.980;2023-02-20T02:31:22;36.13;;;17.00;;
18822;SDS011;9540;51.550;7.980;2023-02-20T02:34:19;34.33;;;16.27;;
18822;SDS011;9540;51.550;7.980;2023-02-20T02:37:18;41.87;;;16.50;;
18822;SDS011;9540;51.550;7.980;2023-02-20T02:39:51;30.37;;;15.50;;
18822;SDS011;9540;51.550;7.980;2023-02-20T02:42:26;29.23;;;15.32;;
18822;SDS011;9540;51.550;7.980;2023-02-20T02:45:00;29.30;;;14.77;;
18822;SDS011;9540;51.550;7.980;2023-02-20T02:47:34;34.13;;;16.07;;
18822;SDS011;9540;51.550;7.980;2023-02-20T02:50:07;31.63;;;14.97;;
18822;SDS011;9540;51.550;7.980;2023-02-20T02:52:39;31.77;;;15.10;;
18822;SDS011;9540;51.550;7.980;2023-02-20T02:55:14;31.47;;;15.27;;
18822;SDS011;9540;51.550;7.980;2023-02-20T02:57:43;30.53;;;15.27;;
18822;SDS011;9540;51.550;7.980;2023-02-20T03:00:11;30.83;;;14.57;;
18822;SDS011;9540;51.550;7.980;2023-02-20T03:02:43;28.67;;;15.33;;
18822;SDS011;9540;51.550;7.980;2023-02-20T03:05:17;30.70;;;15.23;;
18822;SDS011;9540;51.550;7.980;2023-02-20T03:07:48;33.47;;;16.50;;
18822;SDS011;9540;51.550;7.980;2023-02-20T03:10:23;32.97;;;16.47;;
18822;SDS011;9540;51.550;7.980;2023-02-20T03:12:57;29.63;;;15.90;;
18822;SDS011;9540;51.550;7.980;2023-02-20T03:15:29;30.77;;;15.00;;
18822;SDS011;9540;51.550;7.980;2023-02-20T03:17:58;30.73;;;15.73;;
18822;SDS011;9540;51.550;7.980;2023-02-20T03:20:36;32.43;;;16.50;;
18822;SDS011;9540;51.550;7.980;2023-02-20T03:23:05;33.20;;;15.80;;
18822;SDS011;9540;51.550;7.980;2023-02-20T03:25:36;38.30;;;16.77;;
18822;SDS011;9540;51.550;7.980;2023-02-20T03:28:06;38.37;;;17.00;;
18822;SDS011;9540;51.550;7.980;2023-02-20T03:30:36;39.90;;;17.57;;
18822;SDS011;9540;51.550;7.980;2023-02-20T03:33:09;34.40;;;15.57;;
18822;SDS011;9540;51.550;7.980;2023-02-20T03:35:55;38.53;;;16.47;;
18822;SDS011;9540;51.550;7.980;2023-02-20T03:38:45;31.73;;;15.00;;
18822;SDS011;9540;51.550;7.980;2023-02-20T03:41:35;34.30;;;15.57;;
18822;SDS011;9540;51.550;7.980;2023-02-20T03:44:22;32.77;;;15.37;;
18822;SDS011;9540;51.550;7.980;2023-02-20T03:46:50;35.07;;;15.93;;
18822;SDS011;9540;51.550;7.980;2023-02-20T03:49:21;28.90;;;15.13;;
18822;SDS011;9540;51.550;7.980;2023-02-20T03:51:52;40.13;;;16.40;;
18822;SDS011;9540;51.550;7.980;2023-02-20T03:54:27;31.83;;;15.70;;
18822;SDS011;9540;51.550;7.980;2023-02-20T03:56:55;31.67;;;14.37;;
18822;SDS011;9540;51.550;7.980;2023-02-20T03:59:27;35.43;;;15.20;;
18822;SDS011;9540;51.550;7.980;2023-02-20T04:01:59;29.40;;;13.73;;
18822;SDS011;9540;51.550;7.980;2023-02-20T04:04:30;30.73;;;14.07;;
18822;SDS011;9540;51.550;7.980;2023-02-20T04:07:02;33.60;;;14.20;;
18822;SDS011;9540;51.550;7.980;2023-02-20T04:09:33;31.83;;;14.17;;
18822;SDS011;9540;51.550;7.980;2023-02-20T04:12:04;34.50;;;12.60;;
18822;SDS011;9540;51.550;7.980;2023-02-20T04:14:37;29.63;;;13.27;;
18822;SDS011;9540;51.550;7.980;2023-02-20T04:17:05;28.63;;;12.97;;
18822;SDS011;9540;51.550;7.980;2023-02-20T04:19:39;27.27;;;12.60;;
18822;SDS011;9540;51.550;7.980;2023-02-20T04:22:06;27.83;;;12.03;;
18822;SDS011;9540;51.550;7.980;2023-02-20T04:24:39;23.27;;;11.90;;
18822;SDS011;9540;51.550;7.980;2023-02-20T04:27:09;25.60;;;11.67;;
18822;SDS011;9540;51.550;7.980;2023-02-20T04:29:37;29.27;;;11.90;;
18822;SDS011;9540;51.550;7.980;2023-02-20T04:32:04;27.20;;;11.03;;
18822;SDS011;9540;51.550;7.980;2023-02-20T04:34:31;25.47;;;10.87;;
18822;SDS011;9540;51.550;7.980;2023-02-20T04:37:03;23.87;;;11.87;;
18822;SDS011;9540;51.550;7.980;2023-02-20T04:39:32;24.43;;;12.30;;
18822;SDS011;9540;51.550;7.980;2023-02-20T04:42:01;27.10;;;11.60;;
18822;SDS011;9540;51.550;7.980;2023-02-20T04:44:28;22.03;;;11.53;;
18822;SDS011;9540;51.550;7.980;2023-02-20T04:46:58;23.33;;;11.43;;
18822;SDS011;9540;51.550;7.980;2023-02-20T04:49:26;24.03;;;11.43;;
18822;SDS011;9540;51.550;7.980;2023-02-20T04:51:53;21.37;;;10.67;;
18822;SDS011;9540;51.550;7.980;2023-02-20T04:54:21;28.80;;;11.10;;
18822;SDS011;9540;51.550;7.980;2023-02-20T04:56:48;24.43;;;11.30;;
18822;SDS011;9540;51.550;7.980;2023-02-20T04:59:17;20.13;;;9.93;;
18822;SDS011;9540;51.550;7.980;2023-02-20T05:01:44;18.70;;;9.77;;
18822;SDS011;9540;51.550;7.980;2023-02-20T05:04:13;23.97;;;10.57;;
18822;SDS011;9540;51.550;7.980;2023-02-20T05:06:41;24.07;;;9.97;;
18822;SDS011;9540;51.550;7.980;2023-02-20T05:09:09;23.97;;;10.80;;
18822;SDS011;9540;51.550;7.980;2023-02-20T05:11:36;21.97;;;9.33;;
18822;SDS011;9540;51.550;7.980;2023-02-20T05:14:03;20.45;;;9.00;;
18822;SDS011;9540;51.550;7.980;2023-02-20T05:16:32;15.50;;;8.03;;
18822;SDS011;9540;51.550;7.980;2023-02-20T05:18:59;15.73;;;8.35;;
18822;SDS011;9540;51.550;7.980;2023-02-20T05:21:26;19.03;;;8.03;;
18822;SDS011;9540;51.550;7.980;2023-02-20T05:24:10;23.83;;;7.80;;
18822;SDS011;9540;51.550;7.980;2023-02-20T05:26:38;16.52;;;7.60;;
18822;SDS011;9540;51.550;7.980;2023-02-20T05:29:05;14.80;;;7.87;;
18822;SDS011;9540;51.550;7.980;2023-02-20T05:31:35;11.40;;;6.83;;
18822;SDS011;9540;51.550;7.980;2023-02-20T05:34:02;12.95;;;6.70;;
18822;SDS011;9540;51.550;7.980;2023-02-20T05:36:29;15.77;;;7.50;;
18822;SDS011;9540;51.550;7.980;2023-02-20T05:38:56;16.67;;;6.30;;
18822;SDS011;9540;51.550;7.980;2023-02-20T05:41:23;13.38;;;6.35;;
18822;SDS011;9540;51.550;7.980;2023-02-20T05:43:50;12.30;;;6.53;;
18822;SDS011;9540;51.550;7.980;2023-02-20T05:46:18;14.27;;;6.03;;
18822;SDS011;9540;51.550;7.980;2023-02-20T05:48:48;13.82;;;6.95;;
18822;SDS011;9540;51.550;7.980;2023-02-20T05:51:19;13.80;;;5.77;;
18822;SDS011;9540;51.550;7.980;2023-02-20T05:53:48;12.87;;;6.27;;
18822;SDS011;9540;51.550;7.980;2023-02-20T05:56:15;18.63;;;6.37;;
18822;SDS011;9540;51.550;7.980;2023-02-20T05:58:42;22.03;;;6.47;;
18822;SDS011;9540;51.550;7.980;2023-02-20T06:01:14;15.17;;;6.50;;
18822;SDS011;9540;51.550;7.980;2023-02-20T06:03:42;13.70;;;6.87;;
18822;SDS011;9540;51.550;7.980;2023-02-20T06:06:11;17.03;;;7.23;;
18822;SDS011;9540;51.550;7.980;2023-02-20T06:08:39;15.17;;;6.30;;
18822;SDS011;9540;51.550;7.980;2023-02-20T06:11:06;15.73;;;6.22;;
18822;SDS011;9540;51.550;7.980;2023-02-20T06:13:35;15.67;;;7.07;;
18822;SDS011;9540;51.550;7.980;2023-02-20T06:16:02;38.40;;;11.73;;
18822;SDS011;9540;51.550;7.980;2023-02-20T06:18:30;14.20;;;7.30;;
18822;SDS011;9540;51.550;7.980;2023-02-20T06:20:57;15.52;;;6.47;;
18822;SDS011;9540;51.550;7.980;2023-02-20T06:23:25;17.23;;;6.05;;
18822;SDS011;9540;51.550;7.980;2023-02-20T06:25:52;16.80;;;6.68;;
18822;SDS011;9540;51.550;7.980;2023-02-20T06:28:19;18.43;;;7.53;;
18822;SDS011;9540;51.550;7.980;2023-02-20T06:30:46;12.18;;;5.63;;
18822;SDS011;9540;51.550;7.980;2023-02-20T06:33:13;13.77;;;6.75;;
18822;SDS011;9540;51.550;7.980;2023-02-20T06:35:40;14.00;;;6.63;;
18822;SDS011;9540;51.550;7.980;2023-02-20T06:38:07;12.55;;;6.45;;
18822;SDS011;9540;51.550;7.980;2023-02-20T06:40:36;12.98;;;6.38;;
18822;SDS011;9540;51.550;7.980;2023-02-20T06:43:03;14.77;;;6.55;;
18822;SDS011;9540;51.550;7.980;2023-02-20T06:45:30;15.80;;;6.43;;
18822;SDS011;9540;51.550;7.980;2023-02-20T06:47:57;18.90;;;6.97;;
18822;SDS011;9540;51.550;7.980;2023-02-20T06:50:24;17.58;;;6.85;;
18822;SDS011;9540;51.550;7.980;2023-02-20T06:52:51;11.07;;;5.75;;
18822;SDS011;9540;51.550;7.980;2023-02-20T06:55:18;12.07;;;6.00;;
18822;SDS011;9540;51.550;7.980;2023-02-20T06:57:47;10.18;;;6.57;;
18822;SDS011;9540;51.550;7.980;2023-02-20T07:00:15;16.77;;;7.55;;
18822;SDS011;9540;51.550;7.980;2023-02-20T07:02:43;14.57;;;7.57;;
18822;SDS011;9540;51.550;7.980;2023-02-20T07:05:11;14.70;;;6.20;;
18822;SDS011;9540;51.550;7.980;2023-02-20T07:07:38;15.73;;;6.88;;
18822;SDS011;9540;51.550;7.980;2023-02-20T07:10:05;15.63;;;7.10;;
18822;SDS011;9540;51.550;7.980;2023-02-20T07:12:32;16.20;;;8.07;;
18822;SDS011;9540;51.550;7.980;2023-02-20T07:15:03;15.33;;;6.73;;
18822;SDS011;9540;51.550;7.980;2023-02-20T07:17:31;14.73;;;7.33;;
18822;SDS011;9540;51.550;7.980;2023-02-20T07:19:58;17.33;;;6.93;;
18822;SDS011;9540;51.550;7.980;2023-02-20T07:22:25;15.17;;;6.87;;
18822;SDS011;9540;51.550;7.980;2023-02-20T07:24:52;18.60;;;6.87;;
18822;SDS011;9540;51.550;7.980;2023-02-20T07:27:21;18.67;;;7.93;;
18822;SDS011;9540;51.550;7.980;2023-02-20T07:29:49;12.70;;;7.53;;
18822;SDS011;9540;51.550;7.980;2023-02-20T07:32:18;19.77;;;8.07;;
18822;SDS011;9540;51.550;7.980;2023-02-20T07:34:47;14.70;;;8.53;;
18822;SDS011;9540;51.550;7.980;2023-02-20T07:37:15;16.03;;;9.27;;
18822;SDS011;9540;51.550;7.980;2023-02-20T07:39:42;21.13;;;9.40;;
18822;SDS011;9540;51.550;7.980;2023-02-20T07:42:09;23.43;;;9.83;;
18822;SDS011;9540;51.550;7.980;2023-02-20T07:44:36;20.70;;;9.80;;
18822;SDS011;9540;51.550;7.980;2023-02-20T07:47:03;15.03;;;9.50;;
18822;SDS011;9540;51.550;7.980;2023-02-20T07:49:32;17.50;;;10.23;;
18822;SDS011;9540;51.550;7.980;2023-02-20T07:51:59;25.07;;;11.13;;
18822;SDS011;9540;51.550;7.980;2023-02-20T07:54:26;21.03;;;10.43;;
18822;SDS011;9540;51.550;7.980;2023-02-20T07:56:53;24.75;;;11.80;;
18822;SDS011;9540;51.550;7.980;2023-02-20T07:59:21;24.40;;;10.77;;
18822;SDS011;9540;51.550;7.980;2023-02-20T08:01:48;16.77;;;10.93;;
18822;SDS011;9540;51.550;7.980;2023-02-20T08:04:15;22.20;;;11.38;;
18822;SDS011;9540;51.550;7.980;2023-02-20T08:06:44;16.73;;;10.48;;
18822;SDS011;9540;51.550;7.980;2023-02-20T08:09:11;23.70;;;10.37;;
18822;SDS011;9540;51.550;7.980;2023-02-20T08:11:38;17.37;;;10.93;;
18822;SDS011;9540;51.550;7.980;2023-02-20T08:14:05;16.92;;;10.52;;
18822;SDS011;9540;51.550;7.980;2023-02-20T08:16:33;19.30;;;11.70;;
18822;SDS011;9540;51.550;7.980;2023-02-20T08:19:00;18.37;;;11.10;;
18822;SDS011;9540;51.550;7.980;2023-02-20T08:21:27;20.43;;;10.27;;
18822;SDS011;9540;51.550;7.980;2023-02-20T08:23:55;18.87;;;10.87;;
18822;SDS011;9540;51.550;7.980;2023-02-20T08:26:22;21.57;;;11.20;;
18822;SDS011;9540;51.550;7.980;2023-02-20T08:28:49;24.23;;;11.27;;
18822;SDS011;9540;51.550;7.980;2023-02-20T08:31:17;19.40;;;11.20;;
18822;SDS011;9540;51.550;7.980;2023-02-20T08:33:45;20.83;;;11.80;;
18822;SDS011;9540;51.550;7.980;2023-02-20T08:36:12;18.57;;;12.00;;
18822;SDS011;9540;51.550;7.980;2023-02-20T08:38:43;20.67;;;11.05;;
18822;SDS011;9540;51.550;7.980;2023-02-20T08:41:12;15.77;;;9.63;;
18822;SDS011;9540;51.550;7.980;2023-02-20T08:43:39;15.77;;;10.85;;
18822;SDS011;9540;51.550;7.980;2023-02-20T08:46:09;23.13;;;11.45;;
18822;SDS011;9540;51.550;7.980;2023-02-20T08:48:36;16.85;;;9.95;;
18822;SDS011;9540;51.550;7.980;2023-02-20T08:51:03;15.88;;;10.50;;
18822;SDS011;9540;51.550;7.980;2023-02-20T08:53:31;20.55;;;10.98;;
18822;SDS011;9540;51.550;7.980;2023-02-20T08:55:59;19.05;;;10.32;;
18822;SDS011;9540;51.550;7.980;2023-02-20T08:58:27;20.00;;;10.90;;
18822;SDS011;9540;51.550;7.980;2023-02-20T09:00:54;13.40;;;9.90;;
18822;SDS011;9540;51.550;7.980;2023-02-20T09:03:21;19.10;;;10.30;;
18822;SDS011;9540;51.550;7.980;2023-02-20T09:05:49;16.30;;;10.25;;
18822;SDS011;9540;51.550;7.980;2023-02-20T09:08:16;14.68;;;10.50;;
18822;SDS011;9540;51.550;7.980;2023-02-20T09:10:43;16.35;;;9.75;;
18822;SDS011;9540;51.550;7.980;2023-02-20T09:13:10;15.52;;;10.10;;
18822;SDS011;9540;51.550;7.980;2023-02-20T09:15:39;16.63;;;10.07;;
18822;SDS011;9540;51.550;7.980;2023-02-20T09:18:06;18.42;;;10.80;;
18822;SDS011;9540;51.550;7.980;2023-02-20T09:20:34;18.73;;;11.63;;
18822;SDS011;9540;51.550;7.980;2023-02-20T09:23:02;21.60;;;10.80;;
18822;SDS011;9540;51.550;7.980;2023-02-20T09:25:30;23.20;;;11.88;;
18822;SDS011;9540;51.550;7.980;2023-02-20T09:27:57;20.95;;;11.07;;
18822;SDS011;9540;51.550;7.980;2023-02-20T09:30:24;20.13;;;9.93;;
18822;SDS011;9540;51.550;7.980;2023-02-20T09:32:52;14.95;;;9.40;;
18822;SDS011;9540;51.550;7.980;2023-02-20T09:35:20;15.38;;;9.10;;
18822;SDS011;9540;51.550;7.980;2023-02-20T09:37:49;17.17;;;8.70;;
18822;SDS011;9540;51.550;7.980;2023-02-20T09:40:16;19.13;;;10.63;;
18822;SDS011;9540;51.550;7.980;2023-02-20T09:42:52;15.88;;;9.65;;
18822;SDS011;9540;51.550;7.980;2023-02-20T09:45:30;16.90;;;10.80;;
18822;SDS011;9540;51.550;7.980;2023-02-20T09:48:03;21.95;;;10.82;;
18822;SDS011;9540;51.550;7.980;2023-02-20T09:50:41;19.27;;;9.55;;
18822;SDS011;9540;51.550;7.980;2023-02-20T09:53:15;14.68;;;9.68;;
18822;SDS011;9540;51.550;7.980;2023-02-20T09:55:46;19.27;;;10.63;;
18822;SDS011;9540;51.550;7.980;2023-02-20T09:58:19;17.83;;;10.05;;
18822;SDS011;9540;51.550;7.980;2023-02-20T10:00:51;16.23;;;10.35;;
18822;SDS011;9540;51.550;7.980;2023-02-20T10:03:25;15.40;;;10.45;;
18822;SDS011;9540;51.550;7.980;2023-02-20T10:05:59;21.02;;;10.25;;
18822;SDS011;9540;51.550;7.980;2023-02-20T10:08:29;20.08;;;10.85;;
18822;SDS011;9540;51.550;7.980;2023-02-20T10:10:56;17.75;;;10.65;;
18822;SDS011;9540;51.550;7.980;2023-02-20T10:13:37;16.70;;;10.20;;
18822;SDS011;9540;51.550;7.980;2023-02-20T10:16:17;20.48;;;11.05;;
18822;SDS011;9540;51.550;7.980;2023-02-20T10:18:53;19.60;;;11.80;;
18822;SDS011;9540;51.550;7.980;2023-02-20T10:21:32;20.58;;;11.60;;
18822;SDS011;9540;51.550;7.980;2023-02-20T10:24:08;21.52;;;11.75;;
18822;SDS011;9540;51.550;7.980;2023-02-20T10:26:53;20.77;;;12.20;;
18822;SDS011;9540;51.550;7.980;2023-02-20T10:29:28;26.08;;;13.50;;
18822;SDS011;9540;51.550;7.980;2023-02-20T10:32:00;24.75;;;12.32;;
18822;SDS011;9540;51.550;7.980;2023-02-20T10:34:34;20.90;;;13.02;;
18822;SDS011;9540;51.550;7.980;2023-02-20T10:37:07;17.63;;;10.75;;
18822;SDS011;9540;51.550;7.980;2023-02-20T10:39:39;22.35;;;12.60;;
18822;SDS011;9540;51.550;7.980;2023-02-20T10:42:14;21.48;;;12.07;;
18822;SDS011;9540;51.550;7.980;2023-02-20T10:44:47;21.77;;;13.27;;
18822;SDS011;9540;51.550;7.980;2023-02-20T10:47:20;21.20;;;13.23;;
18822;SDS011;9540;51.550;7.980;2023-02-20T10:49:54;18.85;;;12.10;;
18822;SDS011;9540;51.550;7.980;2023-02-20T10:52:28;22.02;;;12.32;;
18822;SDS011;9540;51.550;7.980;2023-02-20T10:54:59;23.52;;;13.30;;
18822;SDS011;9540;51.550;7.980;2023-02-20T10:57:34;19.70;;;12.65;;
18822;SDS011;9540;51.550;7.980;2023-02-20T11:00:06;19.23;;;13.02;;
18822;SDS011;9540;51.550;7.980;2023-02-20T11:02:39;24.42;;;12.77;;
18822;SDS011;9540;51.550;7.980;2023-02-20T11:05:11;20.80;;;13.43;;
18822;SDS011;9540;51.550;7.980;2023-02-20T11:07:42;20.90;;;13.07;;
18822;SDS011;9540;51.550;7.980;2023-02-20T11:10:09;19.77;;;13.02;;
18822;SDS011;9540;51.550;7.980;2023-02-20T11:12:38;23.38;;;13.40;;
18822;SDS011;9540;51.550;7.980;2023-02-20T11:15:11;22.67;;;12.70;;
18822;SDS011;9540;51.550;7.980;2023-02-20T11:17:40;20.65;;;12.93;;
18822;SDS011;9540;51.550;7.980;2023-02-20T11:23:08;19.60;;;12.70;;
18822;SDS011;9540;51.550;7.980;2023-02-20T11:25:36;23.02;;;13.45;;
18822;SDS011;9540;51.550;7.980;2023-02-20T11:28:07;18.52;;;12.07;;
18822;SDS011;9540;51.550;7.980;2023-02-20T11:30:42;20.95;;;12.30;;
18822;SDS011;9540;51.550;7.980;2023-02-20T11:33:12;22.25;;;12.52;;
18822;SDS011;9540;51.550;7.980;2023-02-20T11:35:41;26.77;;;12.73;;
18822;SDS011;9540;51.550;7.980;2023-02-20T11:38:17;21.23;;;12.10;;
18822;SDS011;9540;51.550;7.980;2023-02-20T11:41:02;20.67;;;12.23;;
18822;SDS011;9540;51.550;7.980;2023-02-20T11:43:33;23.52;;;12.30;;
18822;SDS011;9540;51.550;7.980;2023-02-20T11:46:09;22.52;;;11.90;;
18822;SDS011;9540;51.550;7.980;2023-02-20T11:48:43;24.58;;;12.15;;
18822;SDS011;9540;51.550;7.980;2023-02-20T11:51:33;22.83;;;12.27;;
18822;SDS011;9540;51.550;7.980;2023-02-20T11:54:12;21.08;;;13.30;;
18822;SDS011;9540;51.550;7.980;2023-02-20T11:59:31;22.25;;;12.02;;
18822;SDS011;9540;51.550;7.980;2023-02-20T12:05:02;31.98;;;13.65;;
18822;SDS011;9540;51.550;7.980;2023-02-20T12:07:54;23.92;;;13.40;;
18822;SDS011;9540;51.550;7.980;2023-02-20T12:10:41;20.98;;;13.75;;
18822;SDS011;9540;51.550;7.980;2023-02-20T12:13:20;22.95;;;13.63;;
18822;SDS011;9540;51.550;7.980;2023-02-20T12:15:51;25.85;;;14.68;;
18822;SDS011;9540;51.550;7.980;2023-02-20T12:18:39;28.45;;;14.40;;
18822;SDS011;9540;51.550;7.980;2023-02-20T12:21:28;27.55;;;14.65;;
18822;SDS011;9540;51.550;7.980;2023-02-20T12:24:20;31.55;;;16.70;;
18822;SDS011;9540;51.550;7.980;2023-02-20T12:27:17;31.33;;;16.08;;
18822;SDS011;9540;51.550;7.980;2023-02-20T12:30:05;28.85;;;16.23;;
18822;SDS011;9540;51.550;7.980;2023-02-20T12:32:57;29.88;;;15.85;;
18822;SDS011;9540;51.550;7.980;2023-02-20T12:35:48;32.25;;;16.00;;
18822;SDS011;9540;51.550;7.980;2023-02-20T12:38:29;31.83;;;16.13;;
18822;SDS011;9540;51.550;7.980;2023-02-20T12:41:21;37.80;;;16.85;;
18822;SDS011;9540;51.550;7.980;2023-02-20T12:44:22;27.08;;;15.23;;
18822;SDS011;9540;51.550;7.980;2023-02-20T12:47:02;29.00;;;16.08;;
18822;SDS011;9540;51.550;7.980;2023-02-20T12:49:53;35.65;;;16.75;;
18822;SDS011;9540;51.550;7.980;2023-02-20T12:52:51;28.75;;;15.98;;
18822;SDS011;9540;51.550;7.980;2023-02-20T12:55:55;28.20;;;15.68;;
18822;SDS011;9540;51.550;7.980;2023-02-20T12:58:37;28.52;;;16.00;;
18822;SDS011;9540;51.550;7.980;2023-02-20T13:01:20;25.00;;;15.52;;
18822;SDS011;9540;51.550;7.980;2023-02-20T13:04:04;25.38;;;13.43;;
18822;SDS011;9540;51.550;7.980;2023-02-20T13:06:46;26.33;;;14.00;;
18822;SDS011;9540;51.550;7.980;2023-02-20T13:09:22;24.60;;;15.32;;
18822;SDS011;9540;51.550;7.980;2023-02-20T13:11:58;25.70;;;14.70;;
18822;SDS011;9540;51.550;7.980;2023-02-20T13:14:39;28.27;;;14.23;;
18822;SDS011;9540;51.550;7.980;2023-02-20T13:17:39;28.20;;;14.23;;
18822;SDS011;9540;51.550;7.980;2023-02-20T13:20:15;24.45;;;14.35;;
18822;SDS011;9540;51.550;7.980;2023-02-20T13:22:57;24.35;;;14.90;;
18822;SDS011;9540;51.550;7.980;2023-02-20T13:25:34;26.88;;;13.50;;
18822;SDS011;9540;51.550;7.980;2023-02-20T13:31:20;25.25;;;12.73;;
18822;SDS011;9540;51.550;7.980;2023-02-20T13:43:39;21.92;;;13.57;;
18822;SDS011;9540;51.550;7.980;2023-02-20T13:46:16;28.40;;;14.32;;
18822;SDS011;9540;51.550;7.980;2023-02-20T13:48:57;26.02;;;12.90;;
18822;SDS011;9540;51.550;7.980;2023-02-20T13:51:34;27.27;;;13.90;;
18822;SDS011;9540;51.550;7.980;2023-02-20T13:54:19;24.35;;;13.27;;
18822;SDS011;9540;51.550;7.980;2023-02-20T13:56:56;28.02;;;14.32;;
18822;SDS011;9540;51.550;7.980;2023-02-20T13:59:29;24.75;;;11.52;;
18822;SDS011;9540;51.550;7.980;2023-02-20T14:02:03;20.88;;;11.93;;
18822;SDS011;9540;51.550;7.980;2023-02-20T14:04:51;22.42;;;11.45;;
18822;SDS011;9540;51.550;7.980;2023-02-20T14:07:28;20.83;;;12.45;;
18822;SDS011;9540;51.550;7.980;2023-02-20T14:09:59;31.88;;;14.90;;
18822;SDS011;9540;51.550;7.980;2023-02-20T14:12:28;24.25;;;12.95;;
18822;SDS011;9540;51.550;7.980;2023-02-20T14:14:55;26.05;;;12.75;;
18822;SDS011;9540;51.550;7.980;2023-02-20T14:17:23;25.17;;;11.85;;
18822;SDS011;9540;51.550;7.980;2023-02-20T14:19:53;29.75;;;13.07;;
18822;SDS011;9540;51.550;7.980;2023-02-20T14:22:24;23.33;;;12.32;;
18822;SDS011;9540;51.550;7.980;2023-02-20T14:25:01;25.70;;;12.65;;
18822;SDS011;9540;51.550;7.980;2023-02-20T14:28:03;26.50;;;13.20;;
18822;SDS011;9540;51.550;7.980;2023-02-20T14:30:31;26.33;;;12.95;;
18822;SDS011;9540;51.550;7.980;2023-02-20T14:32:59;24.65;;;13.40;;
18822;SDS011;9540;51.550;7.980;2023-02-20T14:35:34;28.48;;;13.82;;
18822;SDS011;9540;51.550;7.980;2023-02-20T14:38:22;33.30;;;14.43;;
18822;SDS011;9540;51.550;7.980;2023-02-20T14:40:59;23.05;;;12.50;;
18822;SDS011;9540;51.550;7.980;2023-02-20T14:43:35;29.50;;;14.68;;
18822;SDS011;9540;51.550;7.980;2023-02-20T14:46:04;31.27;;;12.98;;
18822;SDS011;9540;51.550;7.980;2023-02-20T14:48:33;25.75;;;13.75;;
18822;SDS011;9540;51.550;7.980;2023-02-20T14:51:12;27.90;;;12.60;;
18822;SDS011;9540;51.550;7.980;2023-02-20T14:53:42;24.50;;;14.10;;
18822;SDS011;9540;51.550;7.980;2023-02-20T14:56:11;25.35;;;14.07;;
18822;SDS011;9540;51.550;7.980;2023-02-20T14:58:39;29.15;;;13.32;;
18822;SDS011;9540;51.550;7.980;2023-02-20T15:01:16;31.42;;;13.40;;
18822;SDS011;9540;51.550;7.980;2023-02-20T15:03:58;32.65;;;14.52;;
18822;SDS011;9540;51.550;7.980;2023-02-20T15:06:29;31.70;;;14.80;;
18822;SDS011;9540;51.550;7.980;2023-02-20T15:09:02;30.90;;;14.60;;
18822;SDS011;9540;51.550;7.980;2023-02-20T15:11:30;36.83;;;15.27;;
18822;SDS011;9540;51.550;7.980;2023-02-20T15:13:58;31.52;;;14.80;;
18822;SDS011;9540;51.550;7.980;2023-02-20T15:16:26;32.40;;;14.45;;
18822;SDS011;9540;51.550;7.980;2023-02-20T15:18:55;27.88;;;14.57;;
18822;SDS011;9540;51.550;7.980;2023-02-20T15:21:30;26.35;;;14.27;;
18822;SDS011;9540;51.550;7.980;2023-02-20T15:24:12;33.00;;;15.52;;
18822;SDS011;9540;51.550;7.980;2023-02-20T15:27:09;31.73;;;15.57;;
18822;SDS011;9540;51.550;7.980;2023-02-20T15:29:39;30.27;;;15.88;;